Time;durP1;ratioP1;P1;durP2;ratioP2;P2;SDS_P1;SDS_P2;PMS_P1;PMS_P2;Temp;Humidity;BMP_temperature;BMP_pressure;BME280_temperature;BME280_humidity;BME280_pressure;Samples;Min_cycle;Max_cycle;Signal;HPM_P1;HPM_P2
2020/12/23 00:00:51;;;;;;;50.67;25.60;;;;;;;8.18;85.74;100246.75;4409894;32;20048;-73
2020/12/23 00:03:16;;;;;;;47.65;24.50;;;;;;;8.19;85.33;100239.12;4409925;32;20046;-74
2020/12/23 00:05:42;;;;;;;51.92;24.50;;;;;;;8.19;85.70;100223.09;4412715;32;20149;-73
2020/12/23 00:08:08;;;;;;;42.62;22.70;;;;;;;8.17;85.14;100224.78;4411379;32;20106;-73
2020/12/23 00:10:34;;;;;;;46.30;23.05;;;;;;;8.10;84.84;100225.72;4411550;32;20064;-74
2020/12/23 00:13:00;;;;;;;44.97;21.15;;;;;;;8.02;85.05;100215.91;4413796;32;20074;-73
2020/12/23 00:15:25;;;;;;;45.22;21.48;;;;;;;7.95;85.39;100218.06;4411203;32;20475;-73
2020/12/23 00:17:51;;;;;;;43.33;21.60;;;;;;;7.97;86.05;100221.19;4410034;32;20066;-74
2020/12/23 00:20:16;;;;;;;46.75;22.42;;;;;;;7.96;86.05;100219.63;4411432;32;20026;-73
2020/12/23 00:22:42;;;;;;;47.33;21.67;;;;;;;7.90;86.01;100222.16;4413592;32;20129;-73
2020/12/23 00:25:08;;;;;;;37.40;20.67;;;;;;;7.93;86.36;100226.09;4410665;32;20481;-74
2020/12/23 00:27:33;;;;;;;46.75;21.85;;;;;;;7.95;86.15;100209.66;4411187;32;20050;-73
2020/12/23 00:29:59;;;;;;;44.08;21.45;;;;;;;7.89;85.93;100212.16;4408847;32;21199;-73
2020/12/23 00:32:28;;;;;;;43.00;20.62;;;;;;;7.93;86.29;100215.69;4411494;32;20077;-74
2020/12/23 00:34:54;;;;;;;38.83;19.80;;;;;;;7.97;86.13;100212.78;4422418;27;20476;-71
2020/12/23 00:37:20;;;;;;;40.50;20.33;;;;;;;7.93;86.25;100201.69;4409343;32;20081;-72
2020/12/23 00:39:46;;;;;;;44.88;20.30;;;;;;;7.82;85.68;100198.31;4405262;32;20491;-71
2020/12/23 00:42:11;;;;;;;42.60;20.20;;;;;;;7.79;85.87;100195.56;4406700;32;20773;-71
2020/12/23 00:44:37;;;;;;;42.78;20.25;;;;;;;7.73;86.09;100197.31;4391902;32;20037;-71
2020/12/23 00:47:03;;;;;;;37.40;19.12;;;;;;;7.73;86.43;100192.50;4408290;32;20033;-71
2020/12/23 00:49:28;;;;;;;37.08;17.20;;;;;;;7.68;85.61;100187.44;4408959;32;20073;-71
2020/12/23 00:51:54;;;;;;;36.85;17.52;;;;;;;7.72;86.30;100184.53;4410346;32;20034;-71
2020/12/23 00:54:20;;;;;;;40.08;17.23;;;;;;;7.65;86.21;100179.91;4408357;32;20042;-71
2020/12/23 00:56:45;;;;;;;37.40;17.37;;;;;;;7.72;86.79;100167.72;4407170;32;20034;-71
2020/12/23 00:59:11;;;;;;;32.30;16.02;;;;;;;7.72;86.63;100167.72;4408846;32;20489;-72
2020/12/23 01:01:37;;;;;;;35.53;16.77;;;;;;;7.73;86.86;100166.50;4412528;32;20085;-71
2020/12/23 01:04:03;;;;;;;34.53;16.65;;;;;;;7.65;86.67;100154.69;4408055;32;20480;-72
2020/12/23 01:06:29;;;;;;;30.67;16.30;;;;;;;7.74;87.46;100156.91;4410428;32;20065;-71
2020/12/23 01:08:55;;;;;;;31.10;15.27;;;;;;;7.80;86.82;100171.97;4406510;32;20460;-71
2020/12/23 01:11:21;;;;;;;33.33;16.87;;;;;;;7.76;86.61;100160.84;4396544;32;20083;-71
2020/12/23 01:13:47;;;;;;;32.83;15.70;;;;;;;7.82;87.09;100163.91;4410922;32;20046;-71
2020/12/23 01:16:22;;;;;;;28.73;14.77;;;;;;;7.82;86.92;100158.31;4408844;32;20392;-71
2020/12/23 01:18:48;;;;;;;30.20;15.07;;;;;;;7.87;86.64;100157.78;4406465;32;20041;-71
2020/12/23 01:21:14;;;;;;;32.65;15.05;;;;;;;7.78;85.75;100150.00;4410937;32;20130;-72
2020/12/23 01:23:42;;;;;;;27.10;13.68;;;;;;;7.71;86.06;100147.31;4411186;32;20091;-71
2020/12/23 01:26:08;;;;;;;33.35;13.77;;;;;;;7.83;87.01;100151.50;4409806;32;20076;-71
2020/12/23 01:28:35;;;;;;;29.92;13.93;;;;;;;7.81;86.77;100162.34;4405854;32;20457;-71
2020/12/23 01:31:00;;;;;;;25.40;12.90;;;;;;;7.80;86.35;100166.37;4407466;32;20108;-71
2020/12/23 01:33:26;;;;;;;25.30;12.57;;;;;;;7.79;86.02;100164.75;4409070;32;20050;-71
2020/12/23 01:35:52;;;;;;;26.55;11.95;;;;;;;7.79;86.33;100165.56;4410205;32;20092;-71
2020/12/23 01:38:18;;;;;;;30.48;13.00;;;;;;;7.71;85.75;100158.53;4406735;32;20038;-71
2020/12/23 01:40:44;;;;;;;25.12;12.85;;;;;;;7.69;86.08;100160.19;4406183;32;20074;-71
2020/12/23 01:43:09;;;;;;;28.95;11.93;;;;;;;7.65;86.02;100157.50;4410487;32;20078;-71
2020/12/23 01:45:36;;;;;;;35.00;12.45;;;;;;;7.64;86.12;100161.50;4405431;32;20081;-71
2020/12/23 01:48:13;;;;;;;25.37;11.07;;;;;;;7.64;86.12;100146.72;4404428;32;20085;-72
2020/12/23 01:50:38;;;;;;;23.20;10.73;;;;;;;7.65;85.90;100151.09;4400272;32;20089;-72
2020/12/23 01:53:04;;;;;;;31.50;12.43;;;;;;;7.60;86.08;100151.59;4407125;32;20049;-72
2020/12/23 01:55:30;;;;;;;25.65;12.88;;;;;;;7.61;86.35;100148.34;4405683;32;20391;-72
2020/12/23 01:57:56;;;;;;;30.88;12.05;;;;;;;7.60;86.48;100151.59;4405114;32;20094;-72
2020/12/23 02:00:22;;;;;;;27.67;12.35;;;;;;;7.60;86.28;100148.78;4403926;32;20419;-72
2020/12/23 02:02:51;;;;;;;24.42;12.00;;;;;;;7.52;85.53;100150.94;4401298;32;20094;-72
2020/12/23 02:05:19;;;;;;;25.33;11.68;;;;;;;7.57;86.19;100153.25;4403838;32;20057;-72
2020/12/23 02:07:44;;;;;;;23.70;11.90;;;;;;;7.59;86.32;100148.03;4402307;32;20524;-72
2020/12/23 02:10:10;;;;;;;20.83;11.18;;;;;;;7.61;86.72;100145.56;4401705;32;20074;-72
2020/12/23 02:12:36;;;;;;;22.17;10.43;;;;;;;7.62;86.66;100143.56;4405743;32;20039;-71
2020/12/23 02:15:16;;;;;;;20.02;10.43;;;;;;;7.52;85.56;100141.78;4404396;32;20128;-72
2020/12/23 02:17:42;;;;;;;23.45;11.27;;;;;;;7.64;86.66;100138.31;4405075;32;20568;-72
2020/12/23 02:20:11;;;;;;;21.37;10.57;;;;;;;7.34;85.21;100150.53;4404860;32;20167;-72
2020/12/23 02:22:37;;;;;;;20.83;10.18;;;;;;;7.54;86.06;100144.91;4406522;32;20141;-72
2020/12/23 02:25:04;;;;;;;20.92;10.18;;;;;;;7.53;86.13;100135.75;4406080;32;21602;-72
2020/12/23 02:27:30;;;;;;;21.50;10.77;;;;;;;7.51;85.80;100132.56;4403152;32;20665;-72
2020/12/23 02:29:57;;;;;;;28.92;12.55;;;;;;;7.53;86.26;100129.34;4405657;32;20026;-71
2020/12/23 02:32:24;;;;;;;24.95;11.65;;;;;;;7.58;86.14;100131.66;4403200;32;20466;-72
2020/12/23 02:34:51;;;;;;;27.27;11.57;;;;;;;7.62;86.33;100116.34;4401915;32;20454;-72
2020/12/23 02:37:17;;;;;;;24.37;11.10;;;;;;;7.62;86.20;100116.34;4394444;32;20417;-72
2020/12/23 02:39:47;;;;;;;26.35;11.75;;;;;;;7.68;86.87;100120.22;4404913;32;20100;-72
2020/12/23 02:42:12;;;;;;;25.88;10.73;;;;;;;7.75;86.88;100108.84;4403743;32;20523;-72
2020/12/23 02:44:38;;;;;;;23.35;10.77;;;;;;;7.77;86.07;100116.81;4402559;32;20038;-72
2020/12/23 02:47:09;;;;;;;23.70;10.38;;;;;;;7.83;86.05;100109.47;4404006;32;20034;-72
2020/12/23 02:49:35;;;;;;;23.95;10.27;;;;;;;7.79;85.49;100114.34;4405422;32;20305;-72
2020/12/23 02:52:01;;;;;;;22.87;10.40;;;;;;;7.83;85.89;100106.69;4406983;32;20026;-72
2020/12/23 02:54:26;;;;;;;18.27;9.32;;;;;;;7.82;85.78;100102.28;4406194;32;20082;-71
2020/12/23 02:56:52;;;;;;;25.23;10.48;;;;;;;7.75;85.07;100103.25;4402337;32;20089;-72
2020/12/23 02:59:18;;;;;;;24.30;11.88;;;;;;;7.80;85.94;100104.75;4401977;32;20091;-72
2020/12/23 03:01:44;;;;;;;21.35;11.05;;;;;;;7.65;85.58;100098.69;4403249;32;20064;-71
2020/12/23 03:04:11;;;;;;;20.35;12.10;;;;;;;7.67;85.36;100095.44;4405637;32;20031;-71
2020/12/23 03:06:37;;;;;;;25.90;12.88;;;;;;;7.68;86.03;100094.22;4404156;32;20056;-71
2020/12/23 03:09:05;;;;;;;23.83;11.98;;;;;;;7.74;86.19;100089.69;4402533;32;20159;-71
2020/12/23 03:11:30;;;;;;;22.83;12.63;;;;;;;7.80;86.14;100090.75;4408488;32;20034;-71
2020/12/23 03:13:56;;;;;;;27.92;12.00;;;;;;;7.81;86.08;100084.72;4405291;32;20049;-72
2020/12/23 03:16:22;;;;;;;21.30;11.50;;;;;;;7.82;85.92;100082.69;4405536;32;20060;-69
2020/12/23 03:18:47;;;;;;;22.37;11.65;;;;;;;7.79;85.39;100075.13;4406461;32;20030;-71
2020/12/23 03:21:13;;;;;;;24.42;11.27;;;;;;;7.69;85.33;100078.97;4403076;32;20481;-72
2020/12/23 03:23:39;;;;;;;19.95;11.38;;;;;;;7.74;85.76;100064.47;4399568;32;20060;-71
2020/12/23 03:26:05;;;;;;;24.10;11.07;;;;;;;7.71;85.37;100065.34;4403318;32;20390;-71
2020/12/23 03:28:33;;;;;;;21.30;11.60;;;;;;;7.75;85.94;100064.03;4403693;32;20041;-72
2020/12/23 03:30:59;;;;;;;20.70;11.82;;;;;;;7.80;85.81;100065.53;4403835;32;20431;-71
2020/12/23 03:33:25;;;;;;;27.40;12.15;;;;;;;7.81;86.12;100061.50;4397287;32;20442;-71
2020/12/23 03:35:51;;;;;;;22.55;11.43;;;;;;;7.85;86.26;100062.19;4406167;32;20522;-69
2020/12/23 03:38:16;;;;;;;23.87;12.10;;;;;;;7.85;85.84;100051.00;4405429;32;20111;-69
2020/12/23 03:40:42;;;;;;;21.85;13.02;;;;;;;7.92;86.35;100048.81;4405110;32;20086;-70
2020/12/23 03:43:08;;;;;;;22.80;12.73;;;;;;;7.94;85.87;100051.97;4402797;32;20123;-70
2020/12/23 03:45:33;;;;;;;23.87;12.88;;;;;;;7.82;85.13;100051.88;4406813;32;20115;-70
2020/12/23 03:47:59;;;;;;;22.10;12.73;;;;;;;7.80;85.41;100048.72;4402168;32;20042;-70
2020/12/23 03:50:25;;;;;;;26.33;12.75;;;;;;;7.75;85.52;100038.03;4404704;32;20034;-70
2020/12/23 03:52:51;;;;;;;27.00;13.48;;;;;;;7.73;85.52;100040.47;4402454;32;20030;-70
2020/12/23 03:55:17;;;;;;;28.92;14.87;;;;;;;7.66;85.45;100033.03;4402087;32;20074;-70
2020/12/23 03:57:42;;;;;;;29.83;14.93;;;;;;;7.74;86.43;100036.47;4395904;32;20133;-70
2020/12/23 04:00:10;;;;;;;30.15;15.85;;;;;;;7.75;86.11;100024.84;4398707;32;20959;-70
2020/12/23 04:02:36;;;;;;;29.52;15.45;;;;;;;7.63;85.29;100028.31;4400840;32;20562;-71
2020/12/23 04:05:03;;;;;;;28.67;15.50;;;;;;;7.62;86.24;100031.56;4403265;32;20013;-71
2020/12/23 04:07:29;;;;;;;26.20;15.45;;;;;;;7.70;86.72;100028.13;4406269;32;20130;-71
2020/12/23 04:09:55;;;;;;;30.98;16.60;;;;;;;7.68;86.65;100024.22;4402939;32;20038;-71
2020/12/23 04:12:20;;;;;;;31.80;16.85;;;;;;;7.62;85.90;100031.56;4405961;32;20069;-71
2020/12/23 04:14:46;;;;;;;30.33;16.73;;;;;;;7.50;86.51;100033.03;4402706;32;20052;-71
2020/12/23 04:17:12;;;;;;;33.50;16.05;;;;;;;7.58;87.58;100034.41;4408398;32;20452;-71
2020/12/23 04:19:37;;;;;;;30.00;16.55;;;;;;;7.48;86.68;100032.66;4398891;32;20460;-71
2020/12/23 04:22:03;;;;;;;27.20;16.40;;;;;;;7.46;86.19;100037.91;4406481;32;20038;-71
2020/12/23 04:24:29;;;;;;;31.37;15.75;;;;;;;7.55;87.23;100038.09;4400111;32;20046;-71
2020/12/23 04:26:55;;;;;;;28.55;16.27;;;;;;;7.54;87.00;100030.94;4403207;32;20069;-71
2020/12/23 04:29:21;;;;;;;32.35;15.93;;;;;;;7.57;86.84;100038.47;4402932;32;20052;-71
2020/12/23 04:31:47;;;;;;;27.35;14.85;;;;;;;7.61;87.28;100030.75;4389013;32;20062;-71
2020/12/23 04:34:13;;;;;;;28.12;14.77;;;;;;;7.65;86.98;100030.69;4406287;32;20410;-71
2020/12/23 04:36:39;;;;;;;24.60;14.45;;;;;;;7.70;87.57;100016.16;4400783;32;20053;-71
2020/12/23 04:39:04;;;;;;;26.60;13.95;;;;;;;7.63;87.17;100013.53;4403475;32;20394;-71
2020/12/23 04:41:31;;;;;;;23.15;13.35;;;;;;;7.71;87.47;100015.69;4400178;32;20088;-71
2020/12/23 04:43:57;;;;;;;27.67;14.35;;;;;;;7.65;86.95;100011.88;4402210;32;20017;-71
2020/12/23 04:46:25;;;;;;;26.15;14.40;;;;;;;7.75;87.35;100015.62;4401687;32;20499;-71
2020/12/23 04:48:56;;;;;;;24.77;13.73;;;;;;;7.76;87.42;100006.78;4404753;32;20084;-71
2020/12/23 04:51:29;;;;;;;28.27;13.95;;;;;;;7.74;86.89;100023.22;4401295;32;20092;-71
2020/12/23 04:53:56;;;;;;;23.58;13.07;;;;;;;7.68;86.51;100027.00;4405540;32;20018;-71
2020/12/23 04:56:25;;;;;;;25.67;13.52;;;;;;;7.66;87.16;100029.44;4404986;32;20042;-71
2020/12/23 04:58:52;;;;;;;23.83;13.57;;;;;;;7.72;87.39;100036.09;4408792;32;20080;-70
2020/12/23 05:01:17;;;;;;;23.02;12.98;;;;;;;7.66;86.92;100023.84;4403372;32;20048;-70
2020/12/23 05:03:45;;;;;;;21.30;12.05;;;;;;;7.59;86.45;100021.22;4400126;32;20033;-71
2020/12/23 05:06:11;;;;;;;22.92;12.75;;;;;;;7.63;86.49;100017.13;4403030;32;20014;-71
2020/12/23 05:08:37;;;;;;;25.67;13.43;;;;;;;7.67;86.92;100011.44;4402984;32;20088;-70
2020/12/23 05:11:07;;;;;;;23.27;12.82;;;;;;;7.59;86.09;100005.22;4404329;32;20561;-71
2020/12/23 05:13:33;;;;;;;24.00;12.55;;;;;;;7.60;86.14;100001.19;4403381;32;20030;-70
2020/12/23 05:15:58;;;;;;;22.92;13.10;;;;;;;7.59;86.38;99998.81;4402107;32;20517;-71
2020/12/23 05:18:32;;;;;;;21.65;12.20;;;;;;;7.54;86.39;99991.72;4400094;32;20375;-71
2020/12/23 05:20:59;;;;;;;26.70;13.25;;;;;;;7.56;86.69;99992.09;4398938;32;20100;-71
2020/12/23 05:23:24;;;;;;;24.73;12.30;;;;;;;7.57;86.57;99990.06;4402942;32;20413;-71
2020/12/23 05:25:50;;;;;;;28.65;13.10;;;;;;;7.56;86.48;99982.91;4402086;32;20088;-71
2020/12/23 05:28:16;;;;;;;24.33;12.32;;;;;;;7.56;86.60;99983.69;4398163;32;20109;-71
2020/12/23 05:30:43;;;;;;;20.75;11.75;;;;;;;7.56;87.01;99977.28;4403406;32;20504;-71
2020/12/23 05:33:11;;;;;;;22.73;11.85;;;;;;;7.57;86.52;99987.25;4399783;32;20112;-71
2020/12/23 05:35:38;;;;;;;26.55;12.55;;;;;;;7.60;86.17;99989.19;4398720;32;20031;-71
2020/12/23 05:38:04;;;;;;;23.83;11.10;;;;;;;7.59;86.50;99982.81;4401187;32;20524;-71
2020/12/23 05:40:30;;;;;;;23.90;11.57;;;;;;;7.57;86.15;99973.25;4405747;32;20039;-71
2020/12/23 05:42:57;;;;;;;22.27;12.07;;;;;;;7.53;86.32;99967.78;4397575;32;20015;-71
2020/12/23 05:45:26;;;;;;;26.08;11.60;;;;;;;7.58;87.07;99966.47;4403366;32;20462;-71
2020/12/23 05:47:53;;;;;;;25.90;12.23;;;;;;;7.53;86.56;99964.16;4403825;32;20085;-71
2020/12/23 05:50:19;;;;;;;24.58;12.15;;;;;;;7.57;87.19;99967.66;4406102;32;20043;-71
2020/12/23 05:52:46;;;;;;;24.27;12.00;;;;;;;7.50;86.44;99979.03;4407817;32;20361;-71
2020/12/23 05:55:16;;;;;;;25.80;12.68;;;;;;;7.61;87.45;99976.78;4402694;32;20094;-71
2020/12/23 05:57:44;;;;;;;25.95;12.23;;;;;;;7.63;86.89;99974.31;4404219;32;20146;-71
2020/12/23 06:00:10;;;;;;;21.20;11.75;;;;;;;7.60;86.69;99964.78;4404546;32;20097;-71
2020/12/23 06:02:56;;;;;;;23.00;12.23;;;;;;;7.60;86.08;99955.59;4403679;32;20041;-71
2020/12/23 06:05:28;;;;;;;21.83;11.73;;;;;;;7.63;86.47;99954.72;4400549;32;20103;-71
2020/12/23 06:07:58;;;;;;;25.60;12.37;;;;;;;7.68;87.04;99949.41;4397271;32;21066;-71
2020/12/23 06:10:24;;;;;;;24.52;12.68;;;;;;;7.69;86.48;99961.38;4402302;32;20480;-71
2020/12/23 06:12:55;;;;;;;24.05;12.93;;;;;;;7.67;86.81;99956.22;4400894;32;20440;-71
2020/12/23 06:15:30;;;;;;;22.75;12.77;;;;;;;7.71;86.89;99947.72;4406840;32;20026;-71
2020/12/23 06:17:58;;;;;;;23.33;11.88;;;;;;;7.72;86.38;99954.91;4402259;32;20196;-71
2020/12/23 06:20:29;;;;;;;23.42;13.35;;;;;;;7.68;86.17;99952.19;4403146;32;20068;-71
2020/12/23 06:22:55;;;;;;;20.67;11.60;;;;;;;7.75;86.77;99938.00;4408281;32;20108;-71
2020/12/23 06:25:22;;;;;;;22.20;12.60;;;;;;;7.73;86.63;99929.25;4409178;32;20018;-71
2020/12/23 06:27:52;;;;;;;21.35;11.60;;;;;;;7.70;86.17;99926.56;4404455;32;20068;-71
2020/12/23 06:30:19;;;;;;;21.95;11.95;;;;;;;7.76;86.60;99927.56;4403547;32;20042;-71
2020/12/23 06:32:45;;;;;;;20.62;12.05;;;;;;;7.69;86.18;99933.37;4409947;32;20083;-71
2020/12/23 06:35:11;;;;;;;26.95;11.90;;;;;;;7.70;86.55;99926.56;4407693;32;20061;-71
2020/12/23 06:37:37;;;;;;;20.58;11.43;;;;;;;7.66;86.43;99923.03;4406064;32;20114;-71
2020/12/23 06:40:11;;;;;;;17.42;11.18;;;;;;;7.69;86.40;99924.97;4404812;32;20461;-71
2020/12/23 06:42:45;;;;;;;19.42;11.10;;;;;;;7.72;86.41;99921.28;4406438;32;20014;-71
2020/12/23 06:45:13;;;;;;;19.50;10.63;;;;;;;7.64;85.82;99917.13;4408988;32;20073;-71
2020/12/23 06:47:39;;;;;;;19.70;10.52;;;;;;;7.64;86.59;99919.91;4405133;32;20030;-71
2020/12/23 06:50:13;;;;;;;27.20;12.65;;;;;;;7.70;87.06;99909.75;4406446;32;20110;-71
2020/12/23 06:52:41;;;;;;;21.40;11.48;;;;;;;7.76;86.99;99911.56;4401347;32;20129;-71
2020/12/23 06:55:43;;;;;;;25.48;11.82;;;;;;;7.81;87.32;99915.84;4407052;32;20409;-71
2020/12/23 06:58:09;;;;;;;20.65;11.60;;;;;;;7.85;87.39;99917.34;4406279;32;20094;-71
2020/12/23 07:00:35;;;;;;;21.92;10.68;;;;;;;7.79;86.85;99909.91;4406372;32;20049;-71
2020/12/23 07:03:05;;;;;;;18.42;10.80;;;;;;;7.84;87.26;99915.78;4403174;32;20086;-71
2020/12/23 07:08:09;;;;;;;18.52;10.55;;;;;;;8.42;85.98;99910.22;3980023;32;15151591;-68
2020/12/23 07:13:14;;;;;;;17.50;9.98;;;;;;;7.97;85.98;99904.63;3957358;32;15724418;-69
2020/12/23 07:15:51;;;;;;;16.62;8.68;;;;;;;7.90;86.88;99908.41;4433680;32;20051;-69
2020/12/23 07:18:19;;;;;;;19.52;9.63;;;;;;;7.89;87.18;99912.41;4434097;32;20170;-69
2020/12/23 07:23:22;;;;;;;13.02;8.63;;;;;;;8.33;86.23;99910.88;3985933;32;15026727;-69
2020/12/23 07:25:51;;;;;;;13.80;7.78;;;;;;;8.33;86.23;99910.88;4442593;32;20060;-68
2020/12/23 07:28:26;;;;;;;14.55;8.57;;;;;;;7.88;86.57;99902.44;4439281;32;20038;-68
2020/12/23 07:30:52;;;;;;;;;;;;;;;7.93;87.20;99899.12;4436476;32;20030;-68
2020/12/23 07:35:56;;;;;;;10.23;6.15;;;;;;;8.41;86.43;99906.62;3985026;32;15024953;-68
2020/12/23 07:38:23;;;;;;;11.23;7.40;;;;;;;8.41;86.43;99906.62;4441037;32;20492;-68
2020/12/23 07:40:52;;;;;;;11.00;6.87;;;;;;;8.06;87.84;99890.75;4440230;32;20448;-68
2020/12/23 07:43:18;;;;;;;11.65;7.25;;;;;;;8.02;87.51;99892.88;4440728;32;20384;-68
2020/12/23 07:45:45;;;;;;;11.20;7.20;;;;;;;8.06;88.01;99894.37;4439051;32;20088;-68
2020/12/23 07:48:13;;;;;;;13.38;5.85;;;;;;;8.05;87.71;99897.59;4441454;32;20041;-68
2020/12/23 07:50:42;;;;;;;9.45;6.30;;;;;;;8.06;87.66;99899.16;4441547;32;20045;-68
2020/12/23 07:53:10;;;;;;;9.68;6.40;;;;;;;8.05;87.77;99892.00;4440858;32;20418;-68
2020/12/23 07:55:37;;;;;;;9.85;6.32;;;;;;;8.06;87.73;99899.16;4440059;32;20554;-68
2020/12/23 07:58:03;;;;;;;10.07;7.10;;;;;;;8.04;87.90;99891.19;4441189;32;20064;-68
2020/12/23 08:00:29;;;;;;;10.95;7.12;;;;;;;8.05;87.93;99886.41;4439429;32;20101;-68
2020/12/23 08:02:54;;;;;;;11.25;6.90;;;;;;;8.01;87.65;99894.87;4439638;32;20489;-68
2020/12/23 08:05:20;;;;;;;9.93;6.18;;;;;;;7.99;87.38;99891.75;4439878;32;20014;-68
2020/12/23 08:07:46;;;;;;;10.57;6.25;;;;;;;8.01;87.30;99888.53;4439173;32;20061;-70
2020/12/23 08:10:15;;;;;;;9.77;6.20;;;;;;;7.96;87.41;99872.25;4439210;32;20029;-68
2020/12/23 08:12:51;;;;;;;12.15;6.35;;;;;;;7.99;87.50;99891.75;4441391;32;20062;-68
2020/12/23 08:15:17;;;;;;;10.77;6.22;;;;;;;8.00;87.44;99886.94;4442312;32;20509;-68
2020/12/23 08:17:43;;;;;;;9.35;6.40;;;;;;;8.02;87.71;99890.09;4438025;32;20903;-68
2020/12/23 08:20:13;;;;;;;12.05;6.10;;;;;;;8.04;87.95;99884.84;4439977;32;20022;-68
2020/12/23 08:22:41;;;;;;;10.27;6.22;;;;;;;8.13;88.15;99887.75;4441739;32;20100;-68
2020/12/23 08:25:10;;;;;;;10.13;6.50;;;;;;;8.20;88.28;99887.59;4442452;32;20133;-68
2020/12/23 08:27:37;;;;;;;9.45;6.10;;;;;;;8.24;88.13;99893.91;4439787;32;20093;-68
2020/12/23 08:30:06;;;;;;;11.02;6.82;;;;;;;8.20;87.59;99896.00;4438817;32;20124;-68
2020/12/23 08:32:36;;;;;;;8.82;6.22;;;;;;;8.24;87.40;99899.50;4440078;32;20013;-68
2020/12/23 08:35:04;;;;;;;8.52;5.80;;;;;;;8.20;87.28;99890.38;4421693;32;20420;-68
2020/12/23 08:37:30;;;;;;;8.43;5.47;;;;;;;8.18;87.39;99893.63;4421443;32;20377;-70
2020/12/23 08:39:59;;;;;;;9.25;5.87;;;;;;;8.12;86.91;99886.19;4416910;32;20765;-69
2020/12/23 08:42:25;;;;;;;10.60;6.37;;;;;;;7.92;86.10;99877.94;4424938;32;20097;-69
2020/12/23 08:44:54;;;;;;;11.50;5.97;;;;;;;7.87;87.10;99880.47;4421507;32;20030;-69
2020/12/23 08:47:25;;;;;;;11.52;6.85;;;;;;;7.92;87.70;99874.34;4415220;32;20055;-69
2020/12/23 08:49:53;;;;;;;11.10;7.20;;;;;;;7.91;87.95;99886.78;4409558;32;20029;-69
2020/12/23 08:52:20;;;;;;;9.38;5.62;;;;;;;7.94;88.15;99885.88;4409242;32;20015;-69
2020/12/23 08:54:48;;;;;;;9.45;5.78;;;;;;;7.95;87.50;99877.03;4409673;32;20125;-69
2020/12/23 08:57:16;;;;;;;8.20;5.75;;;;;;;7.91;88.13;99876.34;4410799;32;20053;-70
2020/12/23 08:59:42;;;;;;;8.60;5.32;;;;;;;7.98;88.16;99881.75;4410893;32;20071;-69
2020/12/23 09:02:11;;;;;;;9.18;5.22;;;;;;;8.03;88.21;99874.84;4411693;32;20031;-69
2020/12/23 09:04:37;;;;;;;7.53;5.05;;;;;;;7.88;87.63;99868.03;4412329;32;20066;-69
2020/12/23 09:07:02;;;;;;;7.65;5.10;;;;;;;7.90;87.64;99860.78;4411327;32;20466;-70
2020/12/23 09:09:28;;;;;;;9.73;5.30;;;;;;;7.79;86.99;99865.09;4409879;32;20097;-70
2020/12/23 09:11:55;;;;;;;7.15;5.00;;;;;;;7.78;87.84;99857.91;4409510;32;20372;-70
2020/12/23 09:19:42;;;;;;;8.00;5.55;;;;;;;8.40;86.92;99854.59;3983854;32;15023740;-69
2020/12/23 09:22:10;;;;;;;13.57;5.72;;;;;;;8.40;86.92;99854.59;4434198;32;20026;-69
2020/12/23 09:24:36;;;;;;;8.32;4.97;;;;;;;7.97;87.94;99840.97;4438219;32;20132;-69
2020/12/23 09:27:17;;;;;;;8.60;4.95;;;;;;;7.88;88.17;99843.63;4437648;32;20393;-69
2020/12/23 09:29:43;;;;;;;7.62;5.05;;;;;;;8.04;88.36;99846.38;4430117;32;20073;-69
2020/12/23 09:32:08;;;;;;;7.78;5.25;;;;;;;8.04;88.37;99854.00;4436880;32;20333;-69
2020/12/23 09:34:34;;;;;;;9.55;5.00;;;;;;;8.08;88.06;99847.06;4432480;32;20055;-69
2020/12/23 09:37:00;;;;;;;7.78;5.00;;;;;;;8.02;87.50;99843.25;4434758;32;20085;-69
2020/12/23 09:39:26;;;;;;;7.85;4.87;;;;;;;8.08;88.26;99841.44;4417636;32;20068;-69
2020/12/23 09:42:07;;;;;;;7.47;4.85;;;;;;;8.08;88.07;99833.03;4427274;32;20092;-69
2020/12/23 09:44:35;;;;;;;9.65;5.03;;;;;;;8.15;88.15;99826.47;4432286;32;20103;-69
2020/12/23 09:47:01;;;;;;;7.60;5.40;;;;;;;8.20;88.66;99825.94;4432227;32;20025;-69
2020/12/23 09:49:27;;;;;;;7.78;5.00;;;;;;;8.23;88.66;99825.06;4432648;32;20128;-70
2020/12/23 09:51:54;;;;;;;9.07;5.43;;;;;;;8.26;88.40;99829.00;4422274;32;20077;-69
2020/12/23 09:54:20;;;;;;;9.20;5.75;;;;;;;8.26;88.46;99832.59;4432905;32;20096;-69
2020/12/23 09:59:24;;;;;;;8.32;5.50;;;;;;;8.44;88.46;99834.88;3950275;32;15021779;-70
2020/12/23 10:01:49;;;;;;;8.57;5.72;;;;;;;8.21;87.79;99835.91;4401230;32;20052;-70
2020/12/23 10:04:15;;;;;;;12.75;7.25;;;;;;;8.31;88.34;99828.47;4402164;32;20097;-71
2020/12/23 10:06:41;;;;;;;9.93;6.50;;;;;;;8.38;88.68;99834.63;4405424;32;20038;-68
2020/12/23 10:09:06;;;;;;;12.95;7.05;;;;;;;8.45;88.32;99834.41;4398084;32;20043;-69
2020/12/23 10:11:33;;;;;;;7.80;5.20;;;;;;;8.55;88.60;99832.50;4399888;32;20068;-69
2020/12/23 10:14:00;;;;;;;9.20;5.40;;;;;;;8.46;87.53;99835.97;4398795;32;20089;-69
2020/12/23 10:16:33;;;;;;;7.35;4.85;;;;;;;8.48;87.86;99830.72;4401916;32;20104;-70
2020/12/23 10:19:00;;;;;;;20.00;7.68;;;;;;;8.51;87.78;99843.84;4399761;32;20080;-70
2020/12/23 10:21:26;;;;;;;7.70;4.85;;;;;;;8.48;87.82;99832.72;4403307;32;20031;-70
2020/12/23 10:23:52;;;;;;;7.87;4.85;;;;;;;8.50;88.14;99836.66;4400760;32;20376;-70
2020/12/23 10:26:18;;;;;;;11.40;5.78;;;;;;;8.51;88.33;99835.44;4402483;32;20062;-70
2020/12/23 10:28:44;;;;;;;9.50;5.15;;;;;;;8.60;88.35;99831.97;4393410;32;20465;-70
2020/12/23 10:31:10;;;;;;;11.70;5.85;;;;;;;8.64;88.40;99832.63;4392959;32;20081;-70
2020/12/23 10:33:37;;;;;;;10.57;6.47;;;;;;;8.63;88.02;99825.47;4393529;32;20069;-71
2020/12/23 10:36:07;;;;;;;11.18;5.20;;;;;;;8.58;87.80;99831.63;4388753;32;20084;-70
2020/12/23 10:38:33;;;;;;;9.07;5.12;;;;;;;8.49;87.33;99823.88;4385118;32;20051;-70
2020/12/23 10:40:59;;;;;;;12.20;5.72;;;;;;;8.54;88.61;99820.53;4380902;32;20070;-70
2020/12/23 10:43:24;;;;;;;7.32;4.53;;;;;;;8.55;88.69;99818.50;4382378;32;20116;-70
2020/12/23 10:45:50;;;;;;;6.72;4.30;;;;;;;8.57;88.70;99816.03;4387886;32;20087;-68
2020/12/23 10:48:17;;;;;;;13.60;4.80;;;;;;;8.55;88.58;99810.06;4383548;32;20047;-69
2020/12/23 10:50:44;;;;;;;5.40;3.85;;;;;;;8.50;87.78;99805.81;4387107;32;20078;-69
2020/12/23 10:53:10;;;;;;;8.05;3.67;;;;;;;8.54;88.08;99811.31;4385968;32;20061;-69
2020/12/23 10:55:36;;;;;;;6.35;3.20;;;;;;;8.54;88.48;99798.09;4386494;32;20077;-69
2020/12/23 10:58:02;;;;;;;5.45;3.17;;;;;;;8.51;88.65;99796.19;4385987;32;20065;-68
2020/12/23 11:00:28;;;;;;;6.53;2.70;;;;;;;8.53;88.29;99790.91;4384632;32;20504;-68
2020/12/23 11:02:54;;;;;;;6.82;2.40;;;;;;;8.47;88.34;99795.47;4388515;32;20039;-69
2020/12/23 11:05:20;;;;;;;4.30;2.35;;;;;;;8.40;88.18;99794.94;4389823;32;20066;-69
2020/12/23 11:07:46;;;;;;;2.95;1.92;;;;;;;8.52;89.09;99797.75;4386280;32;20034;-69
2020/12/23 11:10:13;;;;;;;3.78;2.45;;;;;;;8.48;88.95;99797.06;4379624;32;20038;-69
2020/12/23 11:12:38;;;;;;;7.65;3.37;;;;;;;8.56;89.37;99783.62;4373973;32;20047;-70
2020/12/23 11:15:04;;;;;;;3.42;2.17;;;;;;;8.57;89.18;99788.78;4376438;32;21068;-70
2020/12/23 11:17:30;;;;;;;3.15;1.85;;;;;;;8.38;88.82;99778.56;4376163;32;20432;-70
2020/12/23 11:19:55;;;;;;;5.97;2.60;;;;;;;8.40;89.32;99778.13;4375163;32;20143;-70
2020/12/23 11:22:21;;;;;;;4.22;2.90;;;;;;;8.36;89.40;99772.63;4377393;32;20138;-68
2020/12/23 11:24:47;;;;;;;5.53;2.55;;;;;;;8.44;89.82;99771.16;4374287;32;20165;-69
2020/12/23 11:27:14;;;;;;;6.07;2.60;;;;;;;8.38;89.66;99770.16;4375014;32;20065;-68
2020/12/23 11:29:40;;;;;;;4.80;3.20;;;;;;;8.51;89.59;99761.75;4372766;32;20507;-68
2020/12/23 11:32:06;;;;;;;4.22;2.92;;;;;;;8.57;89.47;99757.94;4379130;32;20051;-70
2020/12/23 11:34:31;;;;;;;7.18;4.22;;;;;;;8.58;89.48;99758.72;4374878;32;20104;-68
2020/12/23 11:36:59;;;;;;;3.72;2.45;;;;;;;8.62;89.11;99756.59;4379234;32;20877;-69
2020/12/23 11:39:24;;;;;;;6.10;2.70;;;;;;;8.68;89.13;99754.81;4374210;32;20411;-69
2020/12/23 11:42:00;;;;;;;3.20;2.05;;;;;;;8.70;89.05;99750.31;4374729;32;20015;-68
2020/12/23 11:44:26;;;;;;;3.50;2.40;;;;;;;8.67;88.41;99751.19;4375956;32;20383;-68